Time;durP1;ratioP1;P1;durP2;ratioP2;P2;SDS_P1;SDS_P2;PMS_P1;PMS_P2;Temp;Humidity;BMP_temperature;BMP_pressure;BME280_temperature;BME280_humidity;BME280_pressure;Samples;Min_cycle;Max_cycle;Signal;HPM_P1;HPM_P2
2023/06/26 00:02:17;;;;;;;10.53;9.43;;;21.70;86.60;;;;;;4960597;28;20209;-75
2023/06/26 00:04:43;;;;;;;10.83;9.80;;;21.80;85.90;;;;;;4971891;28;20471;-76
2023/06/26 00:07:09;;;;;;;11.00;10.10;;;21.90;86.30;;;;;;4972339;28;20684;-77
2023/06/26 00:09:35;;;;;;;11.67;10.40;;;21.90;86.30;;;;;;4959218;28;20444;-75
2023/06/26 00:12:01;;;;;;;10.07;9.17;;;21.90;86.60;;;;;;4969978;28;20431;-75
2023/06/26 00:14:27;;;;;;;11.43;10.37;;;21.90;85.50;;;;;;4971277;28;20237;-75
2023/06/26 00:16:52;;;;;;;10.27;9.37;;;21.80;85.80;;;;;;4946475;28;20300;-75
2023/06/26 00:19:18;;;;;;;9.50;8.47;;;21.70;88.40;;;;;;4971410;28;20988;-76
2023/06/26 00:21:46;;;;;;;11.67;10.50;;;21.70;86.90;;;;;;4982274;28;20183;-74
2023/06/26 00:24:12;;;;;;;9.50;8.70;;;21.70;87.70;;;;;;4978380;28;20688;-75
2023/06/26 00:26:38;;;;;;;10.77;9.77;;;21.90;88.60;;;;;;4970572;28;20486;-75
2023/06/26 00:29:04;;;;;;;11.07;10.03;;;21.80;88.10;;;;;;4981566;28;20853;-74
2023/06/26 00:31:30;;;;;;;10.07;9.07;;;21.70;89.00;;;;;;4972309;28;20270;-76
2023/06/26 00:33:55;;;;;;;10.93;9.93;;;21.50;91.60;;;;;;4952720;28;20468;-76
2023/06/26 00:36:23;;;;;;;11.00;10.00;;;21.50;91.40;;;;;;4971549;28;20204;-75
2023/06/26 00:38:49;;;;;;;10.50;9.70;;;21.50;92.10;;;;;;4972169;28;20190;-75
2023/06/26 00:41:15;;;;;;;10.47;9.57;;;21.40;92.60;;;;;;4971556;28;20468;-75
2023/06/26 00:43:41;;;;;;;10.73;9.73;;;21.30;92.70;;;;;;4958678;28;20499;-75
2023/06/26 00:46:10;;;;;;;12.17;10.90;;;21.30;92.90;;;;;;4986131;28;20250;-75
2023/06/26 00:48:37;;;;;;;11.10;10.00;;;21.20;94.30;;;;;;4975330;28;20287;-74
2023/06/26 00:51:02;;;;;;;10.47;9.57;;;21.20;94.60;;;;;;4968034;28;20471;-75
2023/06/26 00:53:28;;;;;;;13.40;10.07;;;21.20;94.30;;;;;;4971426;28;20471;-75
2023/06/26 00:55:54;;;;;;;10.83;9.87;;;21.00;95.90;;;;;;4970325;28;20192;-75
2023/06/26 00:58:24;;;;;;;11.13;10.03;;;21.00;95.80;;;;;;4970853;28;20180;-74
2023/06/26 01:00:51;;;;;;;10.00;9.10;;;21.00;96.10;;;;;;4981621;28;20533;-74
2023/06/26 01:03:17;;;;;;;11.80;10.70;;;20.90;97.20;;;;;;4978729;28;20561;-74
2023/06/26 01:05:45;;;;;;;11.17;10.20;;;20.80;97.50;;;;;;4979845;28;20455;-75
2023/06/26 01:08:13;;;;;;;9.93;9.03;;;20.70;98.00;;;;;;4971326;28;20435;-75
2023/06/26 01:10:39;;;;;;;10.97;9.97;;;20.70;98.20;;;;;;4971567;28;20838;-77
2023/06/26 01:13:05;;;;;;;10.93;9.97;;;20.80;97.70;;;;;;4968154;28;20868;-75
2023/06/26 01:15:30;;;;;;;11.80;10.80;;;20.80;97.60;;;;;;4969738;28;20970;-74
2023/06/26 01:17:59;;;;;;;11.23;10.13;;;20.90;97.90;;;;;;4983985;28;20483;-75
2023/06/26 01:20:25;;;;;;;10.87;9.87;;;20.80;97.80;;;;;;4967171;28;20199;-73
2023/06/26 01:23:15;;;;;;;10.30;9.50;;;20.70;98.20;;;;;;4972699;28;20830;-74
2023/06/26 01:26:05;;;;;;;10.50;9.50;;;20.60;99.40;;;;;;4974876;28;20451;-74
2023/06/26 01:28:33;;;;;;;11.20;10.17;;;20.60;99.60;;;;;;4973646;28;20494;-74
2023/06/26 01:31:00;;;;;;;10.57;9.67;;;20.70;99.70;;;;;;4992118;28;20836;-74
2023/06/26 01:33:26;;;;;;;10.83;9.83;;;20.70;99.60;;;;;;4976012;28;20494;-74
2023/06/26 01:35:51;;;;;;;11.67;10.60;;;20.80;99.60;;;;;;4973493;28;20459;-73
2023/06/26 01:38:19;;;;;;;12.17;9.40;;;20.90;99.00;;;;;;4972946;28;20933;-73
2023/06/26 01:40:45;;;;;;;10.30;9.30;;;20.80;99.20;;;;;;4973350;28;20195;-74
2023/06/26 01:43:35;;;;;;;11.50;10.50;;;20.80;99.70;;;;;;4971167;28;20463;-76
2023/06/26 01:46:25;;;;;;;10.50;9.53;;;20.70;99.90;;;;;;4965584;28;20541;-74
2023/06/26 01:49:11;;;;;;;10.77;9.87;;;20.60;99.90;;;;;;4983478;28;20436;-73
2023/06/26 01:51:47;;;;;;;10.20;9.30;;;20.50;99.90;;;;;;4975448;28;20513;-73
2023/06/26 01:54:20;;;;;;;10.30;9.33;;;20.40;99.90;;;;;;4972444;28;20442;-73
2023/06/26 01:56:49;;;;;;;9.77;8.87;;;20.30;99.90;;;;;;4972031;28;20501;-73
2023/06/26 01:59:15;;;;;;;10.20;9.20;;;20.40;99.90;;;;;;4972161;28;22535;-73
2023/06/26 02:01:40;;;;;;;9.93;9.00;;;20.40;99.90;;;;;;4988805;28;20434;-73
2023/06/26 02:04:06;;;;;;;10.40;9.40;;;20.40;99.90;;;;;;4974441;28;20688;-73
2023/06/26 02:06:31;;;;;;;9.70;8.90;;;20.50;99.90;;;;;;4974295;28;20565;-73
2023/06/26 02:08:57;;;;;;;10.90;9.90;;;20.40;99.90;;;;;;4966721;28;20239;-73
2023/06/26 02:11:23;;;;;;;10.17;9.20;;;20.40;99.90;;;;;;4973683;28;20701;-74
2023/06/26 02:13:48;;;;;;;11.33;10.27;;;20.20;99.90;;;;;;4971876;28;20275;-73
2023/06/26 02:16:14;;;;;;;9.77;8.83;;;20.20;99.90;;;;;;4982074;28;20298;-73
2023/06/26 02:18:39;;;;;;;10.40;9.40;;;20.20;99.90;;;;;;4976378;28;20279;-73
2023/06/26 02:21:05;;;;;;;10.17;9.20;;;20.20;99.90;;;;;;4973200;28;20216;-73
2023/06/26 02:23:31;;;;;;;10.03;9.17;;;20.20;99.90;;;;;;4973958;28;20732;-73
2023/06/26 02:25:57;;;;;;;10.93;9.87;;;20.10;99.90;;;;;;4963725;28;20460;-73
2023/06/26 02:28:22;;;;;;;9.40;8.60;;;20.10;99.90;;;;;;4973205;28;20222;-73
2023/06/26 02:30:47;;;;;;;10.93;9.93;;;20.10;99.90;;;;;;4977798;28;20180;-73
2023/06/26 02:33:13;;;;;;;10.10;9.30;;;20.20;99.90;;;;;;4973890;28;20187;-73
2023/06/26 02:35:38;;;;;;;10.50;9.57;;;20.10;99.90;;;;;;4973459;28;20212;-73
2023/06/26 02:38:04;;;;;;;9.60;8.80;;;20.00;99.90;;;;;;4969860;28;20189;-74
2023/06/26 02:40:30;;;;;;;13.00;10.17;;;20.00;99.90;;;;;;4972711;28;20211;-73
2023/06/26 02:42:55;;;;;;;10.50;9.60;;;20.00;99.90;;;;;;4971652;28;20287;-73
2023/06/26 02:45:21;;;;;;;10.30;9.40;;;19.90;99.90;;;;;;4982456;28;20203;-73
2023/06/26 02:47:46;;;;;;;11.87;10.77;;;19.90;99.90;;;;;;4977859;28;20208;-73
2023/06/26 02:50:12;;;;;;;10.60;9.60;;;19.90;99.90;;;;;;4972685;28;20591;-73
2023/06/26 02:52:37;;;;;;;10.77;9.90;;;19.90;99.90;;;;;;4970440;28;20265;-73
2023/06/26 02:55:04;;;;;;;9.83;9.03;;;19.90;99.90;;;;;;4973590;28;20308;-74
2023/06/26 02:57:30;;;;;;;10.83;9.73;;;20.00;99.90;;;;;;4972749;28;20240;-73
2023/06/26 02:59:55;;;;;;;12.93;9.30;;;19.90;99.90;;;;;;4970951;28;20849;-73
2023/06/26 03:02:21;;;;;;;11.10;9.17;;;19.90;99.90;;;;;;4979074;28;20212;-73
2023/06/26 03:04:46;;;;;;;10.10;9.13;;;19.80;99.90;;;;;;4973356;28;20235;-73
2023/06/26 03:07:12;;;;;;;11.50;10.50;;;19.80;99.90;;;;;;4959060;28;20777;-73
2023/06/26 03:09:37;;;;;;;9.73;8.83;;;19.70;99.90;;;;;;4972967;28;20665;-73
2023/06/26 03:12:03;;;;;;;10.87;9.97;;;19.70;99.90;;;;;;4971591;28;20183;-73
2023/06/26 03:14:29;;;;;;;9.57;8.77;;;19.70;99.90;;;;;;4971959;28;20239;-73
2023/06/26 03:16:57;;;;;;;9.03;8.30;;;19.80;99.90;;;;;;4986339;28;20179;-73
2023/06/26 03:19:23;;;;;;;10.60;9.60;;;20.00;99.90;;;;;;4977345;28;20439;-73
2023/06/26 03:21:49;;;;;;;9.80;9.00;;;19.90;99.90;;;;;;4970533;28;20443;-73
2023/06/26 03:24:14;;;;;;;9.70;8.90;;;19.90;99.90;;;;;;4972000;28;20266;-73
2023/06/26 03:26:40;;;;;;;10.57;9.73;;;19.90;99.90;;;;;;4972017;28;20545;-73
2023/06/26 03:29:05;;;;;;;11.87;9.97;;;20.10;99.90;;;;;;4972238;28;20181;-73
2023/06/26 03:31:31;;;;;;;10.03;9.13;;;20.00;99.90;;;;;;4981333;28;20188;-73
2023/06/26 03:33:56;;;;;;;10.40;9.40;;;20.00;99.90;;;;;;4972815;28;20184;-73
2023/06/26 03:36:22;;;;;;;10.47;9.57;;;19.80;99.90;;;;;;4971999;28;20319;-73
2023/06/26 03:38:47;;;;;;;9.50;8.60;;;19.70;99.90;;;;;;4972029;28;20198;-73
2023/06/26 03:41:13;;;;;;;10.30;9.40;;;19.70;99.90;;;;;;4970031;28;20656;-73
2023/06/26 03:43:38;;;;;;;9.50;8.70;;;19.80;99.90;;;;;;4971914;28;20208;-73
2023/06/26 03:46:04;;;;;;;10.00;9.00;;;19.90;99.90;;;;;;4980570;28;20335;-73
2023/06/26 03:48:29;;;;;;;9.43;8.67;;;20.30;99.90;;;;;;4982620;28;20199;-73
2023/06/26 03:50:55;;;;;;;10.47;9.40;;;20.10;99.90;;;;;;4971750;28;20255;-73
2023/06/26 03:53:20;;;;;;;10.23;9.23;;;20.20;99.90;;;;;;4969293;28;20244;-73
2023/06/26 03:55:46;;;;;;;10.33;9.43;;;20.30;99.90;;;;;;4973450;28;20227;-73
2023/06/26 03:58:11;;;;;;;10.10;9.20;;;20.20;99.90;;;;;;4982868;28;20588;-73
2023/06/26 04:00:37;;;;;;;9.90;9.00;;;20.20;99.90;;;;;;4984606;28;20275;-73
2023/06/26 04:03:04;;;;;;;10.57;9.47;;;20.40;99.90;;;;;;4971648;28;20203;-73
2023/06/26 04:05:29;;;;;;;10.50;9.70;;;20.60;99.90;;;;;;4970666;28;20291;-73
2023/06/26 04:07:55;;;;;;;10.30;9.27;;;20.70;99.90;;;;;;4972435;28;20874;-73
2023/06/26 04:10:21;;;;;;;9.10;8.40;;;20.70;99.90;;;;;;4977940;28;20250;-73
2023/06/26 04:12:47;;;;;;;10.10;9.30;;;20.80;99.90;;;;;;4987999;28;20274;-73
2023/06/26 04:15:13;;;;;;;9.93;8.93;;;20.80;99.90;;;;;;4970349;28;20549;-73
2023/06/26 04:17:39;;;;;;;9.87;9.03;;;20.90;99.90;;;;;;4980297;28;20531;-73
2023/06/26 04:20:08;;;;;;;9.17;8.43;;;20.80;99.90;;;;;;4959655;28;20219;-73
2023/06/26 04:22:34;;;;;;;9.90;9.00;;;20.80;99.90;;;;;;4969504;28;20238;-73
2023/06/26 04:25:03;;;;;;;10.50;9.50;;;20.90;99.90;;;;;;4970148;28;20498;-73
2023/06/26 04:27:30;;;;;;;11.40;10.30;;;21.00;99.90;;;;;;4975192;28;20511;-73
2023/06/26 04:29:55;;;;;;;9.53;8.73;;;21.10;99.90;;;;;;4972623;28;20434;-73
2023/06/26 04:32:21;;;;;;;11.40;10.27;;;21.10;99.90;;;;;;4981279;28;20522;-73
2023/06/26 04:34:47;;;;;;;10.53;9.63;;;21.10;99.90;;;;;;4971869;28;20561;-73
2023/06/26 04:37:16;;;;;;;9.70;8.90;;;21.10;99.90;;;;;;4970478;28;20183;-73
2023/06/26 04:39:41;;;;;;;9.40;8.57;;;21.10;99.90;;;;;;4971280;28;20450;-73
2023/06/26 04:42:07;;;;;;;10.00;9.20;;;21.10;99.90;;;;;;4970556;28;20432;-73
2023/06/26 04:44:33;;;;;;;9.90;9.10;;;21.20;99.90;;;;;;4979254;28;20692;-73
2023/06/26 04:46:59;;;;;;;8.90;8.10;;;21.30;99.90;;;;;;4979673;28;20242;-73
2023/06/26 04:49:24;;;;;;;10.30;9.40;;;21.40;99.90;;;;;;4969829;28;20373;-73
2023/06/26 04:51:50;;;;;;;10.33;9.30;;;21.50;99.90;;;;;;4971106;28;20180;-73
2023/06/26 04:54:16;;;;;;;10.60;9.70;;;21.70;99.90;;;;;;4971437;28;20180;-73
2023/06/26 04:56:43;;;;;;;11.00;10.00;;;21.80;99.90;;;;;;4971726;28;20587;-73
2023/06/26 04:59:13;;;;;;;9.53;8.70;;;21.90;99.90;;;;;;4974301;28;20665;-73
2023/06/26 05:01:39;;;;;;;10.93;9.83;;;22.10;99.90;;;;;;4970967;28;20445;-73
2023/06/26 05:04:05;;;;;;;10.40;9.40;;;22.20;99.90;;;;;;4969153;28;21007;-73
2023/06/26 05:06:31;;;;;;;11.07;9.97;;;22.40;99.90;;;;;;4975969;28;20450;-73
2023/06/26 05:08:56;;;;;;;10.50;9.60;;;22.50;99.90;;;;;;4974097;28;20435;-73
2023/06/26 05:11:22;;;;;;;10.53;9.70;;;22.60;99.90;;;;;;4975605;28;20188;-73
2023/06/26 05:13:48;;;;;;;10.13;9.13;;;22.80;99.90;;;;;;4973164;28;20505;-73
2023/06/26 05:16:14;;;;;;;10.00;9.10;;;22.90;99.90;;;;;;4972551;28;20483;-75
2023/06/26 05:18:39;;;;;;;9.93;9.13;;;23.10;99.90;;;;;;4976283;28;20450;-73
2023/06/26 05:21:06;;;;;;;10.00;8.97;;;23.30;99.90;;;;;;4983054;28;20266;-74
2023/06/26 05:23:32;;;;;;;10.13;9.30;;;23.40;99.90;;;;;;4974541;28;20256;-73
2023/06/26 05:25:58;;;;;;;10.77;9.87;;;23.60;99.90;;;;;;4969535;28;20870;-73
2023/06/26 05:28:25;;;;;;;9.63;8.73;;;23.70;99.90;;;;;;4980199;28;20436;-73
2023/06/26 05:30:51;;;;;;;9.87;8.93;;;23.90;99.90;;;;;;4987225;28;20184;-74
2023/06/26 05:33:18;;;;;;;10.17;9.17;;;24.10;99.90;;;;;;4980624;28;20443;-71
2023/06/26 05:35:45;;;;;;;10.00;9.10;;;24.30;99.90;;;;;;4972921;28;20492;-71
2023/06/26 05:38:13;;;;;;;9.90;9.10;;;24.40;99.60;;;;;;4973858;28;20941;-72
2023/06/26 05:40:40;;;;;;;9.30;8.40;;;24.50;99.10;;;;;;4982979;28;20502;-69
2023/06/26 05:43:06;;;;;;;8.80;8.00;;;24.70;97.60;;;;;;4973990;28;20463;-69
2023/06/26 05:45:32;;;;;;;9.57;8.77;;;24.90;96.90;;;;;;4971097;28;20452;-66
2023/06/26 05:47:57;;;;;;;9.73;8.93;;;25.10;95.30;;;;;;4974981;28;20448;-66
2023/06/26 05:50:23;;;;;;;9.40;8.50;;;25.30;95.50;;;;;;4981805;28;20184;-66
2023/06/26 05:52:49;;;;;;;10.00;9.10;;;25.40;92.50;;;;;;4974746;28;20192;-66
2023/06/26 05:55:15;;;;;;;9.20;8.30;;;25.30;91.00;;;;;;4972716;28;20258;-65
2023/06/26 05:57:41;;;;;;;8.97;8.27;;;25.30;90.80;;;;;;4980158;28;20325;-66
2023/06/26 06:00:10;;;;;;;9.00;8.20;;;25.40;90.60;;;;;;4981522;28;20516;-66
2023/06/26 06:02:37;;;;;;;8.83;8.00;;;25.60;90.10;;;;;;4978520;28;20262;-67
2023/06/26 06:05:03;;;;;;;8.33;7.63;;;25.70;88.20;;;;;;4978155;28;20933;-66
2023/06/26 06:07:28;;;;;;;10.10;8.50;;;25.80;86.80;;;;;;4972604;28;20435;-64
2023/06/26 06:09:54;;;;;;;9.40;8.60;;;25.90;87.20;;;;;;4973290;28;20956;-66
2023/06/26 06:12:19;;;;;;;9.00;8.20;;;26.10;85.70;;;;;;4982738;28;20715;-65
2023/06/26 06:14:45;;;;;;;8.07;7.47;;;26.30;84.50;;;;;;4978131;28;20218;-65
2023/06/26 06:17:10;;;;;;;9.83;8.20;;;26.30;83.20;;;;;;4978660;28;20637;-65
2023/06/26 06:19:36;;;;;;;9.30;8.50;;;26.50;83.50;;;;;;4981567;28;20195;-66
2023/06/26 06:22:02;;;;;;;9.03;8.23;;;26.70;81.50;;;;;;4994415;28;20299;-65
2023/06/26 06:24:27;;;;;;;8.70;7.87;;;26.70;79.40;;;;;;4994548;28;20227;-65
2023/06/26 06:26:53;;;;;;;9.93;9.00;;;26.80;79.40;;;;;;4994292;28;20612;-66
2023/06/26 06:29:19;;;;;;;9.00;8.20;;;27.00;80.00;;;;;;4994080;28;20186;-66
2023/06/26 06:31:45;;;;;;;7.73;7.10;;;27.20;78.30;;;;;;4964699;28;20193;-66
2023/06/26 06:34:11;;;;;;;9.30;8.27;;;27.40;78.00;;;;;;4980104;28;20443;-65
2023/06/26 06:36:37;;;;;;;9.30;8.50;;;27.70;77.10;;;;;;4970357;28;20188;-66
2023/06/26 06:39:03;;;;;;;8.90;8.20;;;27.70;74.10;;;;;;4985548;28;20434;-73
2023/06/26 06:41:29;;;;;;;8.87;8.17;;;27.70;74.50;;;;;;4971387;28;20189;-72
2023/06/26 06:43:54;;;;;;;8.33;7.63;;;27.80;73.40;;;;;;4955447;29;20472;-72
2023/06/26 06:46:20;;;;;;;9.07;8.27;;;27.90;73.30;;;;;;4957261;28;20201;-72
2023/06/26 06:48:46;;;;;;;8.50;7.80;;;27.90;72.40;;;;;;4983790;28;20172;-73
2023/06/26 06:51:12;;;;;;;8.10;7.50;;;28.00;72.00;;;;;;4994004;28;20171;-72
2023/06/26 06:53:38;;;;;;;9.10;8.30;;;28.20;71.90;;;;;;4993993;28;20948;-73
2023/06/26 06:56:03;;;;;;;8.90;8.17;;;28.60;70.90;;;;;;4991907;28;20627;-73
2023/06/26 06:58:30;;;;;;;8.47;7.77;;;28.80;69.10;;;;;;4985540;28;20755;-72
2023/06/26 07:00:56;;;;;;;9.67;8.87;;;28.90;69.20;;;;;;4960519;28;20173;-74
2023/06/26 07:03:22;;;;;;;8.20;7.60;;;29.10;67.60;;;;;;4968093;28;20474;-74
2023/06/26 07:05:47;;;;;;;7.57;6.87;;;29.00;67.00;;;;;;4984277;28;20551;-73
2023/06/26 07:08:13;;;;;;;8.80;8.00;;;29.10;66.90;;;;;;4993431;28;20586;-74
2023/06/26 07:10:38;;;;;;;8.17;7.53;;;29.20;66.30;;;;;;4984194;28;20189;-75
2023/06/26 07:13:04;;;;;;;9.13;8.00;;;29.50;65.50;;;;;;4973743;28;20179;-74
2023/06/26 07:15:31;;;;;;;9.23;8.17;;;29.60;64.80;;;;;;4973378;28;20204;-74
2023/06/26 07:17:56;;;;;;;8.90;8.00;;;29.50;64.90;;;;;;4972700;28;20172;-74
2023/06/26 07:20:22;;;;;;;8.40;7.63;;;29.60;64.60;;;;;;4980745;28;20804;-74
2023/06/26 07:22:48;;;;;;;9.10;8.30;;;29.70;64.30;;;;;;4990436;28;20677;-74
2023/06/26 07:25:14;;;;;;;8.30;7.60;;;29.90;64.50;;;;;;4993330;28;20223;-74
2023/06/26 07:27:41;;;;;;;8.80;8.10;;;30.30;63.00;;;;;;4993318;28;20454;-75
2023/06/26 07:30:10;;;;;;;9.13;8.23;;;30.30;62.00;;;;;;4993058;28;20584;-74
2023/06/26 07:32:36;;;;;;;8.50;7.70;;;30.50;62.00;;;;;;4993295;28;20423;-74
2023/06/26 07:35:02;;;;;;;8.57;7.97;;;30.70;61.00;;;;;;4991770;28;20446;-72
2023/06/26 07:37:28;;;;;;;8.10;7.37;;;31.00;61.40;;;;;;4979890;28;20972;-74
2023/06/26 07:39:53;;;;;;;9.50;7.80;;;31.20;60.50;;;;;;4985031;28;20862;-74
2023/06/26 07:42:19;;;;;;;9.50;8.60;;;31.10;59.60;;;;;;4993058;28;20645;-74
2023/06/26 07:44:44;;;;;;;8.43;7.80;;;31.50;59.80;;;;;;4992964;28;20187;-73
2023/06/26 07:47:10;;;;;;;8.67;7.90;;;31.60;59.00;;;;;;4992930;28;20226;-74
2023/06/26 07:49:36;;;;;;;7.37;6.77;;;31.70;58.00;;;;;;4988959;28;20193;-75
2023/06/26 07:52:02;;;;;;;7.67;7.07;;;31.80;57.80;;;;;;4982136;28;20180;-73
2023/06/26 07:54:27;;;;;;;7.60;7.00;;;32.00;56.40;;;;;;4988761;28;20321;-73
2023/06/26 07:56:57;;;;;;;7.47;6.97;;;31.90;57.10;;;;;;4992862;28;20175;-73
2023/06/26 07:59:24;;;;;;;8.53;7.73;;;32.00;56.60;;;;;;4992616;28;20191;-73
2023/06/26 08:01:54;;;;;;;8.10;7.50;;;32.30;56.10;;;;;;4991725;28;20418;-73
2023/06/26 08:04:21;;;;;;;7.40;6.90;;;32.30;54.60;;;;;;4976093;28;20459;-73
2023/06/26 08:06:57;;;;;;;7.00;6.50;;;32.50;53.80;;;;;;4982408;28;20439;-73
2023/06/26 08:09:25;;;;;;;7.13;6.63;;;32.80;52.50;;;;;;4987848;28;20418;-73
2023/06/26 08:11:51;;;;;;;7.13;6.40;;;32.90;51.70;;;;;;4992745;28;20446;-73
2023/06/26 08:14:17;;;;;;;7.07;6.57;;;33.20;51.20;;;;;;4992503;28;20454;-73
2023/06/26 08:16:43;;;;;;;7.10;6.50;;;33.50;50.10;;;;;;4985367;28;20660;-73
2023/06/26 08:19:10;;;;;;;7.37;6.77;;;33.30;49.80;;;;;;4984254;28;20426;-73
2023/06/26 08:21:35;;;;;;;6.50;5.90;;;33.40;50.00;;;;;;4992666;28;20505;-73
2023/06/26 08:24:02;;;;;;;6.87;6.37;;;33.80;49.50;;;;;;4992491;28;21055;-73
2023/06/26 08:26:28;;;;;;;8.53;7.73;;;34.00;49.10;;;;;;4992564;28;20175;-72
2023/06/26 08:28:53;;;;;;;7.73;7.17;;;33.90;48.30;;;;;;4992243;28;20900;-72
2023/06/26 08:31:19;;;;;;;7.10;6.60;;;34.00;48.50;;;;;;4992490;28;20648;-73
2023/06/26 08:33:44;;;;;;;6.97;6.37;;;34.00;47.90;;;;;;4988873;28;20195;-72
2023/06/26 08:36:10;;;;;;;7.50;6.80;;;34.10;47.90;;;;;;4990000;28;20692;-72
2023/06/26 08:38:35;;;;;;;8.10;7.10;;;34.20;47.20;;;;;;4996356;28;20186;-73
2023/06/26 08:41:01;;;;;;;7.93;7.33;;;34.60;46.60;;;;;;4996431;28;20182;-73
2023/06/26 08:43:28;;;;;;;6.77;6.20;;;34.70;46.20;;;;;;4996380;28;20206;-72
2023/06/26 08:45:53;;;;;;;9.30;8.60;;;34.40;46.10;;;;;;4996385;28;20225;-73
2023/06/26 08:48:21;;;;;;;7.63;7.03;;;34.70;45.30;;;;;;4980048;28;20548;-73
2023/06/26 08:50:48;;;;;;;8.20;7.60;;;34.80;45.10;;;;;;4977229;28;20570;-73
2023/06/26 08:53:53;;;;;;;8.57;7.97;;;34.60;45.20;;;;;;4975625;28;20427;-73
2023/06/26 08:56:21;;;;;;;8.00;7.40;;;34.70;45.40;;;;;;4943322;28;20521;-72
2023/06/26 08:58:47;;;;;;;7.03;6.53;;;35.20;44.70;;;;;;4976267;28;20434;-72
2023/06/26 09:01:13;;;;;;;7.57;6.87;;;35.70;44.10;;;;;;4976517;28;20423;-73
2023/06/26 09:03:41;;;;;;;8.47;7.97;;;36.10;42.90;;;;;;4974337;28;20214;-72
2023/06/26 09:06:07;;;;;;;7.77;7.20;;;36.30;42.30;;;;;;4975405;28;20200;-73
2023/06/26 09:08:32;;;;;;;8.23;7.57;;;36.30;42.20;;;;;;4975904;28;20957;-73
2023/06/26 09:10:58;;;;;;;10.10;7.97;;;36.30;41.70;;;;;;4976479;28;20204;-73
2023/06/26 09:13:24;;;;;;;8.60;7.90;;;36.30;41.40;;;;;;4976381;28;20535;-72
2023/06/26 09:15:52;;;;;;;10.63;7.33;;;36.10;41.30;;;;;;4976213;28;20211;-73
2023/06/26 09:18:19;;;;;;;7.03;6.43;;;35.70;41.30;;;;;;4976056;28;20192;-73
2023/06/26 09:20:45;;;;;;;7.60;7.10;;;35.50;41.80;;;;;;4979529;28;20485;-73
2023/06/26 09:23:10;;;;;;;7.70;7.10;;;35.50;41.30;;;;;;4982502;28;20463;-73
2023/06/26 09:25:39;;;;;;;7.93;7.23;;;36.00;40.80;;;;;;4975963;28;20287;-73
2023/06/26 09:28:05;;;;;;;7.90;7.40;;;36.50;39.70;;;;;;4976248;28;20176;-73
2023/06/26 09:30:32;;;;;;;9.53;7.47;;;36.20;39.80;;;;;;4975923;28;20474;-73
2023/06/26 09:33:12;;;;;;;8.27;7.70;;;36.50;39.50;;;;;;4976037;28;20184;-73
2023/06/26 09:35:38;;;;;;;7.60;7.10;;;37.00;38.90;;;;;;4974885;28;20467;-72
2023/06/26 09:38:03;;;;;;;8.73;7.97;;;36.70;38.70;;;;;;4985106;28;20442;-73
2023/06/26 09:40:29;;;;;;;7.90;7.20;;;36.80;38.90;;;;;;4991119;28;20179;-73
2023/06/26 09:43:03;;;;;;;7.70;7.00;;;36.30;39.20;;;;;;4995225;28;20285;-72
2023/06/26 09:45:28;;;;;;;7.47;6.97;;;35.80;39.30;;;;;;4993884;28;20329;-73
2023/06/26 09:47:54;;;;;;;8.23;7.63;;;35.70;39.10;;;;;;4994885;28;20506;-73
2023/06/26 09:50:25;;;;;;;8.20;7.70;;;35.10;39.50;;;;;;4986363;28;20192;-73
2023/06/26 09:52:52;;;;;;;7.10;6.60;;;34.70;40.30;;;;;;4983622;28;20653;-73
2023/06/26 09:55:21;;;;;;;7.97;7.47;;;34.50;41.10;;;;;;4975020;28;20447;-73
2023/06/26 09:57:47;;;;;;;8.27;7.57;;;35.50;40.50;;;;;;4975572;28;20435;-73
2023/06/26 10:00:14;;;;;;;7.93;7.33;;;36.50;39.50;;;;;;4975478;28;20416;-73
2023/06/26 10:02:39;;;;;;;9.97;9.00;;;36.60;38.70;;;;;;4973860;28;20566;-73
2023/06/26 10:05:05;;;;;;;8.53;7.73;;;36.60;38.70;;;;;;4986637;28;21014;-72
2023/06/26 10:07:31;;;;;;;8.07;7.37;;;37.30;38.50;;;;;;4990564;28;20180;-73
2023/06/26 10:09:58;;;;;;;8.30;7.60;;;37.20;38.50;;;;;;4947483;28;20423;-72
2023/06/26 10:12:30;;;;;;;7.27;6.77;;;37.00;38.50;;;;;;4975425;28;20470;-71
2023/06/26 10:14:57;;;;;;;6.90;6.50;;;37.20;38.30;;;;;;4966136;28;20551;-71
2023/06/26 10:17:27;;;;;;;7.67;6.97;;;36.50;38.30;;;;;;4968580;28;20436;-72
2023/06/26 10:19:56;;;;;;;8.37;7.70;;;36.40;39.00;;;;;;4967463;28;20415;-72
2023/06/26 10:22:27;;;;;;;8.30;7.70;;;37.00;38.70;;;;;;4965836;28;20424;-72
2023/06/26 10:24:55;;;;;;;8.27;7.60;;;36.80;38.60;;;;;;4972650;28;20498;-74
2023/06/26 10:27:22;;;;;;;8.10;7.50;;;36.70;38.60;;;;;;4955623;28;21064;-73
2023/06/26 10:29:54;;;;;;;9.73;8.53;;;35.70;39.70;;;;;;4955340;29;20416;-73
2023/06/26 10:32:22;;;;;;;7.80;7.30;;;34.70;41.10;;;;;;4956387;29;20419;-74
2023/06/26 10:34:48;;;;;;;8.93;8.10;;;33.90;42.20;;;;;;4963189;28;20546;-73
2023/06/26 10:37:13;;;;;;;12.17;9.23;;;33.00;44.00;;;;;;4987064;28;21044;-73
2023/06/26 10:39:49;;;;;;;9.40;8.50;;;32.60;45.10;;;;;;4991499;28;20186;-73
2023/06/26 10:42:16;;;;;;;10.47;9.70;;;32.30;46.00;;;;;;4948073;28;20259;-73
2023/06/26 10:44:45;;;;;;;9.53;8.73;;;31.90;47.20;;;;;;4960779;28;21049;-73
2023/06/26 10:47:28;;;;;;;9.20;8.50;;;32.10;47.30;;;;;;4964043;28;20428;-73
2023/06/26 10:49:54;;;;;;;9.10;8.30;;;33.30;46.40;;;;;;4974085;28;20948;-73
2023/06/26 10:52:19;;;;;;;9.37;8.67;;;34.90;44.30;;;;;;4971049;28;20439;-73
2023/06/26 10:54:45;;;;;;;8.33;7.63;;;35.90;43.20;;;;;;4975549;28;20203;-73
2023/06/26 10:57:10;;;;;;;9.20;8.53;;;37.20;42.20;;;;;;4993398;28;20175;-74
2023/06/26 10:59:40;;;;;;;9.80;9.10;;;38.00;41.10;;;;;;4987620;28;20180;-73
2023/06/26 11:02:06;;;;;;;9.73;8.50;;;38.60;40.30;;;;;;4972670;28;20175;-73
2023/06/26 11:04:44;;;;;;;8.73;8.23;;;39.40;39.00;;;;;;4972593;28;20463;-73
2023/06/26 11:07:20;;;;;;;8.93;8.33;;;39.60;39.10;;;;;;4972928;28;20180;-73
2023/06/26 11:09:59;;;;;;;9.80;9.20;;;39.50;38.90;;;;;;4972891;28;20434;-73
2023/06/26 11:12:34;;;;;;;8.90;8.30;;;39.30;38.50;;;;;;4972567;28;20435;-73
2023/06/26 11:15:00;;;;;;;9.43;8.30;;;39.30;38.50;;;;;;4971950;28;20585;-73
2023/06/26 11:17:27;;;;;;;8.73;8.10;;;40.00;37.80;;;;;;4972463;28;20535;-73
2023/06/26 11:19:53;;;;;;;8.43;7.93;;;40.00;37.00;;;;;;4972234;28;20435;-73
2023/06/26 11:22:19;;;;;;;9.17;8.50;;;38.70;38.50;;;;;;4971482;28;20436;-73
2023/06/26 11:24:46;;;;;;;10.50;9.50;;;39.60;38.20;;;;;;4973650;28;20501;-73
2023/06/26 11:27:11;;;;;;;9.77;9.07;;;38.60;38.10;;;;;;4978643;28;20199;-73
2023/06/26 11:29:37;;;;;;;10.20;9.47;;;38.30;39.00;;;;;;4992925;28;20843;-73
2023/06/26 11:32:05;;;;;;;9.03;8.43;;;37.70;39.80;;;;;;4989918;28;20175;-73
2023/06/26 11:34:31;;;;;;;8.90;8.03;;;38.70;39.50;;;;;;4954559;29;20205;-74
2023/06/26 11:36:57;;;;;;;9.30;8.53;;;39.70;38.50;;;;;;4963376;28;20442;-74
2023/06/26 11:39:23;;;;;;;9.20;8.40;;;40.80;37.50;;;;;;4983676;28;20573;-74
2023/06/26 11:41:49;;;;;;;8.77;8.23;;;39.80;36.60;;;;;;4981624;28;20179;-74
2023/06/26 11:44:19;;;;;;;9.07;8.47;;;40.80;36.70;;;;;;4972645;28;20196;-74
2023/06/26 11:46:45;;;;;;;8.97;8.20;;;40.80;36.80;;;;;;4973196;28;20168;-74
2023/06/26 11:49:11;;;;;;;9.20;8.50;;;41.10;37.10;;;;;;4973087;28;20936;-74
2023/06/26 11:51:36;;;;;;;9.77;9.17;;;41.60;36.00;;;;;;4980400;28;20194;-74
2023/06/26 11:54:03;;;;;;;8.50;7.83;;;41.60;36.50;;;;;;4972449;28;20271;-73
2023/06/26 11:56:29;;;;;;;8.80;8.30;;;43.00;35.70;;;;;;4973432;28;20253;-73
2023/06/26 11:59:00;;;;;;;9.07;8.47;;;42.10;35.50;;;;;;4973148;28;20954;-73
2023/06/26 12:01:30;;;;;;;9.30;8.60;;;40.80;36.40;;;;;;4973271;28;20172;-73
2023/06/26 12:04:01;;;;;;;8.53;7.73;;;40.80;36.70;;;;;;4979963;28;20560;-73
2023/06/26 12:06:27;;;;;;;8.77;8.17;;;40.00;37.30;;;;;;4988200;28;20794;-73
2023/06/26 12:08:53;;;;;;;9.27;8.67;;;40.60;37.90;;;;;;4991965;28;20912;-73
2023/06/26 12:11:22;;;;;;;9.30;8.60;;;41.00;36.90;;;;;;4992644;28;20449;-73
2023/06/26 12:13:48;;;;;;;8.40;7.80;;;39.10;37.90;;;;;;4975094;28;20442;-72
2023/06/26 12:16:14;;;;;;;8.47;7.87;;;38.50;38.80;;;;;;4987672;28;20857;-73
2023/06/26 12:18:40;;;;;;;9.73;8.23;;;37.90;39.30;;;;;;4980666;28;20219;-73
2023/06/26 12:21:06;;;;;;;9.53;8.73;;;38.90;39.50;;;;;;4985321;28;20921;-73
2023/06/26 12:23:41;;;;;;;8.20;7.60;;;40.30;37.50;;;;;;4977893;28;20615;-73
2023/06/26 12:26:20;;;;;;;8.20;7.60;;;40.70;37.90;;;;;;4953733;29;20204;-73
2023/06/26 12:28:46;;;;;;;8.13;7.53;;;40.70;37.20;;;;;;4956319;28;20435;-73
2023/06/26 12:31:14;;;;;;;8.53;7.90;;;41.50;36.50;;;;;;4956439;28;20448;-73
2023/06/26 12:33:39;;;;;;;12.20;8.40;;;41.50;37.10;;;;;;4964275;28;20479;-73
2023/06/26 12:36:05;;;;;;;8.83;8.23;;;43.10;36.40;;;;;;4985107;28;20500;-73
2023/06/26 12:38:33;;;;;;;8.17;7.57;;;43.20;35.70;;;;;;4992239;28;20178;-73
2023/06/26 12:40:59;;;;;;;8.43;7.93;;;43.90;35.50;;;;;;4992337;28;20172;-73
2023/06/26 12:43:26;;;;;;;8.77;7.97;;;44.50;34.00;;;;;;4984044;28;20485;-74